Le Grand, California
Current Conditions -  °F | °C
As of 12:53 PM on Thursday 27 Nov 2014 (Local Time) from KMCE Reporting Station
Haze Haze  
Wind Chill: 20°   Ceiling: Unl
Heat Index: 20°   Visibility: 4mi
Dew Point:   Wind: 5mph
Humidity: 47%   Direction: NA
Pressure: 30.11"   Gusts: NA
Location:  37.23°N, 120.25°W
Report Text: KMCE 272053Z AUTO VRB04KT 4SM HZ CLR 20/08 A3011 RMK AO2 SLP197 T02000083 58030
Loading
Personal Weather Stations






























Interactive Weather Map New forecast layout! Learn more

10-Day Weather Forecast

Advertisements
Track Severe Weather on mobile